sensor_id;sensor_type;location;lat;lon;timestamp;pressure;altitude;pressure_sealevel;temperature
15709;BMP180;7954;51.914;8.420;2023-03-31T00:02:04;99212.38;;;16.73
15709;BMP180;7954;51.914;8.420;2023-03-31T00:04:39;99221.06;;;16.61
15709;BMP180;7954;51.914;8.420;2023-03-31T00:07:12;99214.34;;;16.62
15709;BMP180;7954;51.914;8.420;2023-03-31T00:09:43;99215.44;;;16.64
15709;BMP180;7954;51.914;8.420;2023-03-31T00:12:13;99214.53;;;16.63
15709;BMP180;7954;51.914;8.420;2023-03-31T00:14:41;99207.63;;;16.62
15709;BMP180;7954;51.914;8.420;2023-03-31T00:17:10;99203.41;;;16.63
15709;BMP180;7954;51.914;8.420;2023-03-31T00:20:53;99194.13;;;16.56
15709;BMP180;7954;51.914;8.420;2023-03-31T00:23:24;99201.41;;;16.60
15709;BMP180;7954;51.914;8.420;2023-03-31T00:25:54;99210.13;;;16.55
15709;BMP180;7954;51.914;8.420;2023-03-31T00:28:22;99198.81;;;16.46
15709;BMP180;7954;51.914;8.420;2023-03-31T00:30:50;99202.09;;;16.45
15709;BMP180;7954;51.914;8.420;2023-03-31T00:33:19;99197.53;;;16.43
15709;BMP180;7954;51.914;8.420;2023-03-31T00:35:50;99187.88;;;16.33
15709;BMP180;7954;51.914;8.420;2023-03-31T00:38:19;99178.94;;;16.37
15709;BMP180;7954;51.914;8.420;2023-03-31T00:40:47;99174.59;;;16.36
15709;BMP180;7954;51.914;8.420;2023-03-31T00:43:26;99170.75;;;16.39
15709;BMP180;7954;51.914;8.420;2023-03-31T00:46:00;99168.06;;;16.45
15709;BMP180;7954;51.914;8.420;2023-03-31T00:48:30;99164.81;;;16.46
15709;BMP180;7954;51.914;8.420;2023-03-31T00:51:02;99153.13;;;16.48
15709;BMP180;7954;51.914;8.420;2023-03-31T00:53:33;99161.19;;;16.51
15709;BMP180;7954;51.914;8.420;2023-03-31T00:56:07;99150.78;;;16.49
15709;BMP180;7954;51.914;8.420;2023-03-31T00:58:36;99152.59;;;16.50
15709;BMP180;7954;51.914;8.420;2023-03-31T01:01:12;99144.97;;;16.50
15709;BMP180;7954;51.914;8.420;2023-03-31T01:03:42;99146.22;;;16.47
15709;BMP180;7954;51.914;8.420;2023-03-31T01:06:13;99144.59;;;16.47
15709;BMP180;7954;51.914;8.420;2023-03-31T01:08:43;99128.03;;;16.44
15709;BMP180;7954;51.914;8.420;2023-03-31T01:11:13;99133.66;;;16.41
15709;BMP180;7954;51.914;8.420;2023-03-31T01:13:43;99134.38;;;16.40
15709;BMP180;7954;51.914;8.420;2023-03-31T01:16:16;99123.78;;;16.30
15709;BMP180;7954;51.914;8.420;2023-03-31T01:18:44;99116.88;;;16.29
15709;BMP180;7954;51.914;8.420;2023-03-31T01:22:03;99108.16;;;16.27
15709;BMP180;7954;51.914;8.420;2023-03-31T01:25:00;99098.69;;;16.26
15709;BMP180;7954;51.914;8.420;2023-03-31T01:27:40;99087.88;;;16.22
15709;BMP180;7954;51.914;8.420;2023-03-31T01:33:38;99104.09;;;16.22
15709;BMP180;7954;51.914;8.420;2023-03-31T01:36:42;99092.25;;;16.23
15709;BMP180;7954;51.914;8.420;2023-03-31T01:39:43;99090.44;;;16.22
15709;BMP180;7954;51.914;8.420;2023-03-31T01:42:15;99084.44;;;16.21
15709;BMP180;7954;51.914;8.420;2023-03-31T01:44:54;99086.63;;;16.18
15709;BMP180;7954;51.914;8.420;2023-03-31T01:47:30;99076.63;;;16.20
15709;BMP180;7954;51.914;8.420;2023-03-31T01:50:07;99077.91;;;16.23
15709;BMP180;7954;51.914;8.420;2023-03-31T01:52:41;99069.66;;;16.12
15709;BMP180;7954;51.914;8.420;2023-03-31T01:55:18;99069.53;;;16.17
15709;BMP180;7954;51.914;8.420;2023-03-31T01:57:51;99060.22;;;16.18
15709;BMP180;7954;51.914;8.420;2023-03-31T02:00:22;99061.16;;;16.18
15709;BMP180;7954;51.914;8.420;2023-03-31T02:02:57;99040.78;;;16.18
15709;BMP180;7954;51.914;8.420;2023-03-31T02:05:31;99048.25;;;16.24
15709;BMP180;7954;51.914;8.420;2023-03-31T02:08:05;99042.44;;;16.25
15709;BMP180;7954;51.914;8.420;2023-03-31T02:10:39;99048.84;;;16.28
15709;BMP180;7954;51.914;8.420;2023-03-31T02:13:10;99052.09;;;16.34
15709;BMP180;7954;51.914;8.420;2023-03-31T02:15:41;99044.13;;;16.38
15709;BMP180;7954;51.914;8.420;2023-03-31T02:18:13;99037.41;;;16.46
15709;BMP180;7954;51.914;8.420;2023-03-31T02:20:45;99025.59;;;16.53
15709;BMP180;7954;51.914;8.420;2023-03-31T02:23:19;99024.47;;;16.51
15709;BMP180;7954;51.914;8.420;2023-03-31T02:25:52;99020.31;;;16.59
15709;BMP180;7954;51.914;8.420;2023-03-31T02:28:23;99019.03;;;16.55
15709;BMP180;7954;51.914;8.420;2023-03-31T02:31:01;98996.47;;;16.58
15709;BMP180;7954;51.914;8.420;2023-03-31T02:33:31;98998.25;;;16.59
15709;BMP180;7954;51.914;8.420;2023-03-31T02:35:59;98992.06;;;16.64
15709;BMP180;7954;51.914;8.420;2023-03-31T02:38:29;98995.38;;;16.63
15709;BMP180;7954;51.914;8.420;2023-03-31T02:41:00;98984.25;;;16.70
15709;BMP180;7954;51.914;8.420;2023-03-31T02:43:29;98974.25;;;16.71
15709;BMP180;7954;51.914;8.420;2023-03-31T02:45:57;98971.31;;;16.75
15709;BMP180;7954;51.914;8.420;2023-03-31T02:48:27;98967.88;;;16.74
15709;BMP180;7954;51.914;8.420;2023-03-31T02:51:20;98965.66;;;16.77
15709;BMP180;7954;51.914;8.420;2023-03-31T02:54:14;98955.84;;;16.80
15709;BMP180;7954;51.914;8.420;2023-03-31T02:56:59;98956.75;;;16.81
15709;BMP180;7954;51.914;8.420;2023-03-31T02:59:40;98952.94;;;16.84
15709;BMP180;7954;51.914;8.420;2023-03-31T03:02:17;98948.38;;;16.82
15709;BMP180;7954;51.914;8.420;2023-03-31T03:05:00;98944.38;;;16.77
15709;BMP180;7954;51.914;8.420;2023-03-31T03:07:35;98938.19;;;16.82
15709;BMP180;7954;51.914;8.420;2023-03-31T03:10:06;98918.84;;;16.84
15709;BMP180;7954;51.914;8.420;2023-03-31T03:12:42;98920.88;;;16.79
15709;BMP180;7954;51.914;8.420;2023-03-31T03:15:13;98916.50;;;16.78
15709;BMP180;7954;51.914;8.420;2023-03-31T03:17:45;98921.97;;;16.81
15709;BMP180;7954;51.914;8.420;2023-03-31T03:20:14;98928.50;;;16.86
15709;BMP180;7954;51.914;8.420;2023-03-31T03:22:44;98926.00;;;16.73
15709;BMP180;7954;51.914;8.420;2023-03-31T03:25:13;98912.34;;;16.65
15709;BMP180;7954;51.914;8.420;2023-03-31T03:27:43;98909.63;;;16.64
15709;BMP180;7954;51.914;8.420;2023-03-31T03:30:12;98912.72;;;16.68
15709;BMP180;7954;51.914;8.420;2023-03-31T03:32:42;98892.91;;;16.66
15709;BMP180;7954;51.914;8.420;2023-03-31T03:35:10;98883.94;;;16.69
15709;BMP180;7954;51.914;8.420;2023-03-31T03:37:38;98878.50;;;16.73
15709;BMP180;7954;51.914;8.420;2023-03-31T03:40:07;98876.84;;;16.73
15709;BMP180;7954;51.914;8.420;2023-03-31T03:42:36;98860.09;;;16.75
15709;BMP180;7954;51.914;8.420;2023-03-31T03:45:07;98855.69;;;16.81
15709;BMP180;7954;51.914;8.420;2023-03-31T03:47:35;98837.81;;;16.88
15709;BMP180;7954;51.914;8.420;2023-03-31T03:50:04;98838.38;;;16.86
15709;BMP180;7954;51.914;8.420;2023-03-31T03:52:32;98833.06;;;16.91
15709;BMP180;7954;51.914;8.420;2023-03-31T03:55:00;98812.66;;;16.91
15709;BMP180;7954;51.914;8.420;2023-03-31T03:57:30;98811.44;;;16.88
15709;BMP180;7954;51.914;8.420;2023-03-31T03:59:58;98801.59;;;16.91
15709;BMP180;7954;51.914;8.420;2023-03-31T04:02:28;98794.28;;;16.94
15709;BMP180;7954;51.914;8.420;2023-03-31T04:04:56;98788.81;;;16.98
15709;BMP180;7954;51.914;8.420;2023-03-31T04:07:24;98784.22;;;17.02
15709;BMP180;7954;51.914;8.420;2023-03-31T04:09:52;98786.03;;;17.03
15709;BMP180;7954;51.914;8.420;2023-03-31T04:12:20;98779.69;;;17.00
15709;BMP180;7954;51.914;8.420;2023-03-31T04:14:48;98786.22;;;17.05
15709;BMP180;7954;51.914;8.420;2023-03-31T04:17:16;98780.59;;;17.00
15709;BMP180;7954;51.914;8.420;2023-03-31T04:19:45;98771.84;;;16.98
15709;BMP180;7954;51.914;8.420;2023-03-31T04:22:16;98776.41;;;16.94
15709;BMP180;7954;51.914;8.420;2023-03-31T04:24:46;98776.97;;;16.91
15709;BMP180;7954;51.914;8.420;2023-03-31T04:27:18;98772.44;;;16.89
15709;BMP180;7954;51.914;8.420;2023-03-31T04:29:46;98763.72;;;16.87
15709;BMP180;7954;51.914;8.420;2023-03-31T04:32:20;98751.72;;;16.86
15709;BMP180;7954;51.914;8.420;2023-03-31T04:36:33;98749.13;;;16.93
15709;BMP180;7954;51.914;8.420;2023-03-31T04:39:00;98744.03;;;16.93
15709;BMP180;7954;51.914;8.420;2023-03-31T04:41:29;98746.38;;;16.91
15709;BMP180;7954;51.914;8.420;2023-03-31T04:43:56;98727.25;;;16.95
15709;BMP180;7954;51.914;8.420;2023-03-31T04:46:25;98717.44;;;16.91
15709;BMP180;7954;51.914;8.420;2023-03-31T04:48:53;98714.34;;;16.93
15709;BMP180;7954;51.914;8.420;2023-03-31T04:51:21;98713.44;;;16.93
15709;BMP180;7954;51.914;8.420;2023-03-31T04:53:51;98704.72;;;16.91
15709;BMP180;7954;51.914;8.420;2023-03-31T04:56:19;98718.19;;;16.90
15709;BMP180;7954;51.914;8.420;2023-03-31T04:58:49;98716.75;;;16.85
15709;BMP180;7954;51.914;8.420;2023-03-31T05:01:17;98709.66;;;16.82
15709;BMP180;7954;51.914;8.420;2023-03-31T05:03:45;98689.44;;;16.84
15709;BMP180;7954;51.914;8.420;2023-03-31T05:06:15;98687.28;;;16.80
15709;BMP180;7954;51.914;8.420;2023-03-31T05:08:43;98677.09;;;16.80
15709;BMP180;7954;51.914;8.420;2023-03-31T05:11:13;98689.28;;;16.82
15709;BMP180;7954;51.914;8.420;2023-03-31T05:13:41;98680.75;;;16.82
15709;BMP180;7954;51.914;8.420;2023-03-31T05:16:10;98671.25;;;16.88
15709;BMP180;7954;51.914;8.420;2023-03-31T05:18:40;98670.72;;;16.83
15709;BMP180;7954;51.914;8.420;2023-03-31T05:21:10;98677.78;;;16.86
15709;BMP180;7954;51.914;8.420;2023-03-31T05:23:38;98668.50;;;16.86
15709;BMP180;7954;51.914;8.420;2023-03-31T05:26:06;98664.72;;;16.83
15709;BMP180;7954;51.914;8.420;2023-03-31T05:28:37;98657.78;;;16.82
15709;BMP180;7954;51.914;8.420;2023-03-31T05:31:06;98653.75;;;16.84
15709;BMP180;7954;51.914;8.420;2023-03-31T05:33:34;98660.50;;;16.83
15709;BMP180;7954;51.914;8.420;2023-03-31T05:36:07;98649.75;;;16.86
15709;BMP180;7954;51.914;8.420;2023-03-31T05:38:36;98644.09;;;16.88
15709;BMP180;7954;51.914;8.420;2023-03-31T05:41:04;98650.63;;;16.86
15709;BMP180;7954;51.914;8.420;2023-03-31T05:43:32;98637.00;;;16.86
15709;BMP180;7954;51.914;8.420;2023-03-31T05:46:01;98639.56;;;16.86
15709;BMP180;7954;51.914;8.420;2023-03-31T05:48:31;98626.41;;;16.90
15709;BMP180;7954;51.914;8.420;2023-03-31T05:51:00;98633.31;;;16.91
15709;BMP180;7954;51.914;8.420;2023-03-31T05:53:29;98621.31;;;16.90
15709;BMP180;7954;51.914;8.420;2023-03-31T05:55:57;98629.69;;;16.89
15709;BMP180;7954;51.914;8.420;2023-03-31T05:58:29;98615.53;;;16.84
15709;BMP180;7954;51.914;8.420;2023-03-31T06:01:03;98617.72;;;16.88
15709;BMP180;7954;51.914;8.420;2023-03-31T06:03:33;98609.97;;;16.95
15709;BMP180;7954;51.914;8.420;2023-03-31T06:06:01;98600.47;;;17.01
15709;BMP180;7954;51.914;8.420;2023-03-31T06:08:31;98598.53;;;17.14
15709;BMP180;7954;51.914;8.420;2023-03-31T06:10:59;98595.94;;;17.21
15709;BMP180;7954;51.914;8.420;2023-03-31T06:13:30;98590.03;;;17.29
15709;BMP180;7954;51.914;8.420;2023-03-31T06:15:59;98580.22;;;17.25
15709;BMP180;7954;51.914;8.420;2023-03-31T06:18:29;98586.44;;;17.27
15709;BMP180;7954;51.914;8.420;2023-03-31T06:21:00;98585.72;;;17.21
15709;BMP180;7954;51.914;8.420;2023-03-31T06:23:29;98571.25;;;17.13
15709;BMP180;7954;51.914;8.420;2023-03-31T06:25:59;98567.34;;;17.16
15709;BMP180;7954;51.914;8.420;2023-03-31T06:28:28;98543.66;;;17.17
15709;BMP180;7954;51.914;8.420;2023-03-31T06:31:01;98543.50;;;17.16
15709;BMP180;7954;51.914;8.420;2023-03-31T06:33:31;98530.75;;;17.16
15709;BMP180;7954;51.914;8.420;2023-03-31T06:36:00;98528.38;;;17.17
15709;BMP180;7954;51.914;8.420;2023-03-31T06:38:31;98530.03;;;17.17
15709;BMP180;7954;51.914;8.420;2023-03-31T06:40:59;98522.03;;;17.14
15709;BMP180;7954;51.914;8.420;2023-03-31T06:43:28;98519.56;;;17.07
15709;BMP180;7954;51.914;8.420;2023-03-31T06:45:56;98531.94;;;17.04
15709;BMP180;7954;51.914;8.420;2023-03-31T06:48:24;98534.50;;;17.04
15709;BMP180;7954;51.914;8.420;2023-03-31T06:50:55;98519.41;;;17.05
15709;BMP180;7954;51.914;8.420;2023-03-31T06:53:23;98508.84;;;17.02
15709;BMP180;7954;51.914;8.420;2023-03-31T06:55:51;98506.28;;;17.02
15709;BMP180;7954;51.914;8.420;2023-03-31T06:58:19;98498.34;;;16.99
15709;BMP180;7954;51.914;8.420;2023-03-31T07:00:47;98491.56;;;17.00
15709;BMP180;7954;51.914;8.420;2023-03-31T07:03:15;98487.03;;;16.97
15709;BMP180;7954;51.914;8.420;2023-03-31T07:05:47;98493.72;;;17.04
15709;BMP180;7954;51.914;8.420;2023-03-31T07:08:17;98485.00;;;17.17
15709;BMP180;7954;51.914;8.420;2023-03-31T07:10:45;98487.50;;;17.24
15709;BMP180;7954;51.914;8.420;2023-03-31T07:13:14;98476.50;;;17.32
15709;BMP180;7954;51.914;8.420;2023-03-31T07:15:43;98468.94;;;17.40
15709;BMP180;7954;51.914;8.420;2023-03-31T07:18:11;98472.97;;;17.54
15709;BMP180;7954;51.914;8.420;2023-03-31T07:20:41;98462.50;;;17.59
15709;BMP180;7954;51.914;8.420;2023-03-31T07:23:09;98464.38;;;17.69
15709;BMP180;7954;51.914;8.420;2023-03-31T07:25:41;98469.22;;;17.74
15709;BMP180;7954;51.914;8.420;2023-03-31T07:28:10;98454.25;;;17.77
15709;BMP180;7954;51.914;8.420;2023-03-31T07:30:38;98452.00;;;17.80
15709;BMP180;7954;51.914;8.420;2023-03-31T07:33:07;98451.13;;;17.80
15709;BMP180;7954;51.914;8.420;2023-03-31T07:35:37;98440.25;;;17.74
15709;BMP180;7954;51.914;8.420;2023-03-31T07:38:07;98443.84;;;17.76
15709;BMP180;7954;51.914;8.420;2023-03-31T07:40:35;98440.41;;;17.75
15709;BMP180;7954;51.914;8.420;2023-03-31T07:43:05;98441.31;;;17.76
15709;BMP180;7954;51.914;8.420;2023-03-31T07:45:33;98421.72;;;17.83
15709;BMP180;7954;51.914;8.420;2023-03-31T07:48:03;98427.06;;;17.78
15709;BMP180;7954;51.914;8.420;2023-03-31T07:50:31;98426.91;;;17.76
15709;BMP180;7954;51.914;8.420;2023-03-31T07:53:00;98423.19;;;17.81
15709;BMP180;7954;51.914;8.420;2023-03-31T07:55:28;98434.88;;;17.79
15709;BMP180;7954;51.914;8.420;2023-03-31T07:57:56;98433.03;;;17.70
15709;BMP180;7954;51.914;8.420;2023-03-31T08:00:26;98429.00;;;17.56
15709;BMP180;7954;51.914;8.420;2023-03-31T08:02:56;98430.31;;;17.53
15709;BMP180;7954;51.914;8.420;2023-03-31T08:05:24;98425.50;;;17.47
15709;BMP180;7954;51.914;8.420;2023-03-31T08:07:53;98429.47;;;17.61
15709;BMP180;7954;51.914;8.420;2023-03-31T08:10:23;98419.47;;;17.62
15709;BMP180;7954;51.914;8.420;2023-03-31T08:12:51;98419.84;;;17.58
15709;BMP180;7954;51.914;8.420;2023-03-31T08:15:19;98422.25;;;17.57
15709;BMP180;7954;51.914;8.420;2023-03-31T08:17:49;98416.56;;;17.59
15709;BMP180;7954;51.914;8.420;2023-03-31T08:20:19;98408.41;;;17.70
15709;BMP180;7954;51.914;8.420;2023-03-31T08:22:47;98404.22;;;17.55
15709;BMP180;7954;51.914;8.420;2023-03-31T08:25:15;98413.34;;;17.53
15709;BMP180;7954;51.914;8.420;2023-03-31T08:27:42;98423.34;;;17.43
15709;BMP180;7954;51.914;8.420;2023-03-31T08:30:12;98428.13;;;17.40
15709;BMP180;7954;51.914;8.420;2023-03-31T08:32:40;98412.06;;;17.41
15709;BMP180;7954;51.914;8.420;2023-03-31T08:35:10;98399.72;;;17.22
15709;BMP180;7954;51.914;8.420;2023-03-31T08:37:39;98418.56;;;17.16
15709;BMP180;7954;51.914;8.420;2023-03-31T08:40:15;98407.13;;;16.97
15709;BMP180;7954;51.914;8.420;2023-03-31T08:42:48;98402.94;;;17.13
15709;BMP180;7954;51.914;8.420;2023-03-31T08:45:20;98412.38;;;16.98
15709;BMP180;7954;51.914;8.420;2023-03-31T08:47:51;98425.13;;;16.83
15709;BMP180;7954;51.914;8.420;2023-03-31T08:50:24;98422.75;;;16.84
15709;BMP180;7954;51.914;8.420;2023-03-31T08:53:00;98427.41;;;16.73
15709;BMP180;7954;51.914;8.420;2023-03-31T08:55:35;98426.59;;;16.66
15709;BMP180;7954;51.914;8.420;2023-03-31T08:58:19;98426.78;;;16.60
15709;BMP180;7954;51.914;8.420;2023-03-31T09:01:00;98421.94;;;16.55
15709;BMP180;7954;51.914;8.420;2023-03-31T09:03:35;98418.81;;;16.57
15709;BMP180;7954;51.914;8.420;2023-03-31T09:06:08;98417.22;;;16.73
15709;BMP180;7954;51.914;8.420;2023-03-31T09:08:38;98421.19;;;16.78
15709;BMP180;7954;51.914;8.420;2023-03-31T09:11:10;98423.22;;;16.73
15709;BMP180;7954;51.914;8.420;2023-03-31T09:13:52;98435.31;;;16.83
15709;BMP180;7954;51.914;8.420;2023-03-31T09:16:24;98426.03;;;16.99
15709;BMP180;7954;51.914;8.420;2023-03-31T09:18:54;98415.09;;;17.00
15709;BMP180;7954;51.914;8.420;2023-03-31T09:21:31;98403.44;;;17.02
15709;BMP180;7954;51.914;8.420;2023-03-31T09:24:04;98402.34;;;17.00
15709;BMP180;7954;51.914;8.420;2023-03-31T09:26:37;98399.13;;;16.94
15709;BMP180;7954;51.914;8.420;2023-03-31T09:29:13;98409.25;;;17.01
15709;BMP180;7954;51.914;8.420;2023-03-31T09:31:44;98398.16;;;17.16
15709;BMP180;7954;51.914;8.420;2023-03-31T09:34:15;98397.88;;;17.21
15709;BMP180;7954;51.914;8.420;2023-03-31T09:36:45;98395.16;;;17.27
15709;BMP180;7954;51.914;8.420;2023-03-31T09:39:15;98393.06;;;17.16
15709;BMP180;7954;51.914;8.420;2023-03-31T09:41:44;98398.41;;;17.10
15709;BMP180;7954;51.914;8.420;2023-03-31T09:44:23;98389.69;;;17.08
15709;BMP180;7954;51.914;8.420;2023-03-31T09:46:54;98395.59;;;17.16
15709;BMP180;7954;51.914;8.420;2023-03-31T09:49:26;98382.69;;;17.30
15709;BMP180;7954;51.914;8.420;2023-03-31T09:52:04;98366.53;;;17.53
15709;BMP180;7954;51.914;8.420;2023-03-31T09:54:36;98373.81;;;17.65
15709;BMP180;7954;51.914;8.420;2023-03-31T09:57:13;98363.09;;;17.76
15709;BMP180;7954;51.914;8.420;2023-03-31T09:59:42;98361.72;;;17.71
15709;BMP180;7954;51.914;8.420;2023-03-31T10:02:23;98365.31;;;17.73
15709;BMP180;7954;51.914;8.420;2023-03-31T10:04:55;98353.97;;;17.78
15709;BMP180;7954;51.914;8.420;2023-03-31T10:07:24;98351.06;;;17.99
15709;BMP180;7954;51.914;8.420;2023-03-31T10:09:54;98349.69;;;18.18
15709;BMP180;7954;51.914;8.420;2023-03-31T10:12:24;98338.69;;;18.43
15709;BMP180;7954;51.914;8.420;2023-03-31T10:15:13;98337.22;;;18.62
15709;BMP180;7954;51.914;8.420;2023-03-31T10:17:46;98331.81;;;18.67
15709;BMP180;7954;51.914;8.420;2023-03-31T10:20:22;98340.22;;;18.66
15709;BMP180;7954;51.914;8.420;2023-03-31T10:23:01;98334.50;;;18.68
15709;BMP180;7954;51.914;8.420;2023-03-31T10:25:31;98331.09;;;18.93
15709;BMP180;7954;51.914;8.420;2023-03-31T10:28:01;98331.00;;;19.17
15709;BMP180;7954;51.914;8.420;2023-03-31T10:30:33;98315.94;;;19.37
15709;BMP180;7954;51.914;8.420;2023-03-31T10:33:05;98315.16;;;19.63
15709;BMP180;7954;51.914;8.420;2023-03-31T10:35:49;98308.59;;;19.84
15709;BMP180;7954;51.914;8.420;2023-03-31T10:38:25;98296.50;;;20.08
15709;BMP180;7954;51.914;8.420;2023-03-31T10:40:56;98288.91;;;20.26
15709;BMP180;7954;51.914;8.420;2023-03-31T10:43:28;98282.50;;;20.40
15709;BMP180;7954;51.914;8.420;2023-03-31T10:45:58;98292.00;;;20.59
15709;BMP180;7954;51.914;8.420;2023-03-31T10:48:29;98287.28;;;20.72
15709;BMP180;7954;51.914;8.420;2023-03-31T10:50:59;98279.34;;;20.87
15709;BMP180;7954;51.914;8.420;2023-03-31T10:53:38;98280.16;;;21.15
15709;BMP180;7954;51.914;8.420;2023-03-31T10:56:31;98271.34;;;21.39
15709;BMP180;7954;51.914;8.420;2023-03-31T10:59:10;98258.38;;;21.56
15709;BMP180;7954;51.914;8.420;2023-03-31T11:01:47;98251.34;;;21.64
15709;BMP180;7954;51.914;8.420;2023-03-31T11:04:40;98259.41;;;21.68
15709;BMP180;7954;51.914;8.420;2023-03-31T11:07:27;98244.78;;;21.67
15709;BMP180;7954;51.914;8.420;2023-03-31T11:10:16;98245.53;;;21.56
15709;BMP180;7954;51.914;8.420;2023-03-31T11:12:51;98240.84;;;21.52
15709;BMP180;7954;51.914;8.420;2023-03-31T11:15:22;98244.09;;;21.32
15709;BMP180;7954;51.914;8.420;2023-03-31T11:18:00;98235.22;;;21.28
15709;BMP180;7954;51.914;8.420;2023-03-31T11:20:34;98240.53;;;21.21
15709;BMP180;7954;51.914;8.420;2023-03-31T11:23:09;98229.97;;;21.08
15709;BMP180;7954;51.914;8.420;2023-03-31T11:25:49;98227.94;;;21.14
15709;BMP180;7954;51.914;8.420;2023-03-31T11:28:34;98225.03;;;21.01
15709;BMP180;7954;51.914;8.420;2023-03-31T11:31:18;98221.63;;;21.11
15709;BMP180;7954;51.914;8.420;2023-03-31T11:34:00;98224.53;;;21.05
15709;BMP180;7954;51.914;8.420;2023-03-31T11:36:43;98231.22;;;20.58
15709;BMP180;7954;51.914;8.420;2023-03-31T11:39:24;98236.31;;;20.21
15709;BMP180;7954;51.914;8.420;2023-03-31T11:42:00;98234.78;;;19.97
15709;BMP180;7954;51.914;8.420;2023-03-31T11:44:34;98230.41;;;19.87
15709;BMP180;7954;51.914;8.420;2023-03-31T11:47:07;98241.16;;;19.75
15709;BMP180;7954;51.914;8.420;2023-03-31T11:49:38;98238.31;;;19.72
15709;BMP180;7954;51.914;8.420;2023-03-31T11:52:13;98238.13;;;19.79
15709;BMP180;7954;51.914;8.420;2023-03-31T11:54:45;98233.75;;;19.78
15709;BMP180;7954;51.914;8.420;2023-03-31T11:57:21;98225.69;;;20.00
15709;BMP180;7954;51.914;8.420;2023-03-31T11:59:54;98216.75;;;20.13
15709;BMP180;7954;51.914;8.420;2023-03-31T12:02:32;98223.59;;;20.31
15709;BMP180;7954;51.914;8.420;2023-03-31T12:05:04;98210.19;;;20.25
15709;BMP180;7954;51.914;8.420;2023-03-31T12:07:37;98215.03;;;20.22
15709;BMP180;7954;51.914;8.420;2023-03-31T12:10:16;98206.78;;;20.16
15709;BMP180;7954;51.914;8.420;2023-03-31T12:12:50;98201.88;;;20.01
15709;BMP180;7954;51.914;8.420;2023-03-31T12:15:24;98196.16;;;20.03
15709;BMP180;7954;51.914;8.420;2023-03-31T12:17:58;98189.78;;;20.08
15709;BMP180;7954;51.914;8.420;2023-03-31T12:20:33;98197.69;;;20.02
15709;BMP180;7954;51.914;8.420;2023-03-31T12:23:07;98200.75;;;20.16
15709;BMP180;7954;51.914;8.420;2023-03-31T12:25:46;98186.69;;;20.48
15709;BMP180;7954;51.914;8.420;2023-03-31T12:28:19;98188.03;;;20.89
15709;BMP180;7954;51.914;8.420;2023-03-31T12:30:48;98184.00;;;21.30
15709;BMP180;7954;51.914;8.420;2023-03-31T12:33:23;98181.94;;;21.26
15709;BMP180;7954;51.914;8.420;2023-03-31T12:36:06;98182.34;;;21.68
15709;BMP180;7954;51.914;8.420;2023-03-31T12:38:49;98176.31;;;22.36
15709;BMP180;7954;51.914;8.420;2023-03-31T12:41:23;98159.72;;;22.32
15709;BMP180;7954;51.914;8.420;2023-03-31T12:44:24;98161.66;;;22.55
15709;BMP180;7954;51.914;8.420;2023-03-31T12:47:07;98164.56;;;22.09
15709;BMP180;7954;51.914;8.420;2023-03-31T12:49:45;98164.03;;;21.84
15709;BMP180;7954;51.914;8.420;2023-03-31T12:52:21;98159.59;;;21.53
15709;BMP180;7954;51.914;8.420;2023-03-31T12:55:03;98163.06;;;21.35
15709;BMP180;7954;51.914;8.420;2023-03-31T12:57:35;98186.47;;;20.55
15709;BMP180;7954;51.914;8.420;2023-03-31T13:00:30;98217.66;;;19.01
15709;BMP180;7954;51.914;8.420;2023-03-31T13:06:10;98262.22;;;17.47
15709;BMP180;7954;51.914;8.420;2023-03-31T13:08:53;98245.69;;;17.44
15709;BMP180;7954;51.914;8.420;2023-03-31T13:11:36;98243.19;;;17.52
15709;BMP180;7954;51.914;8.420;2023-03-31T13:14:11;98237.59;;;17.80
15709;BMP180;7954;51.914;8.420;2023-03-31T13:16:42;98231.22;;;18.09
15709;BMP180;7954;51.914;8.420;2023-03-31T13:19:12;98237.06;;;18.40
15709;BMP180;7954;51.914;8.420;2023-03-31T13:21:52;98236.50;;;18.85
15709;BMP180;7954;51.914;8.420;2023-03-31T13:24:21;98235.13;;;18.71
15709;BMP180;7954;51.914;8.420;2023-03-31T13:26:50;98222.31;;;18.55
15709;BMP180;7954;51.914;8.420;2023-03-31T13:29:23;98244.16;;;18.10
15709;BMP180;7954;51.914;8.420;2023-03-31T13:32:17;98252.41;;;17.76
15709;BMP180;7954;51.914;8.420;2023-03-31T13:34:50;98238.31;;;17.47
15709;BMP180;7954;51.914;8.420;2023-03-31T13:37:49;98236.34;;;17.44
15709;BMP180;7954;51.914;8.420;2023-03-31T13:40:52;98243.97;;;17.68
15709;BMP180;7954;51.914;8.420;2023-03-31T13:47:04;98235.22;;;18.22
15709;BMP180;7954;51.914;8.420;2023-03-31T13:49:55;98231.34;;;18.43
15709;BMP180;7954;51.914;8.420;2023-03-31T13:52:38;98237.34;;;18.43
15709;BMP180;7954;51.914;8.420;2023-03-31T13:55:27;98226.81;;;18.49
15709;BMP180;7954;51.914;8.420;2023-03-31T13:58:15;98228.66;;;18.83
15709;BMP180;7954;51.914;8.420;2023-03-31T14:01:48;98217.22;;;19.05
15709;BMP180;7954;51.914;8.420;2023-03-31T14:04:43;98218.59;;;19.10
15709;BMP180;7954;51.914;8.420;2023-03-31T14:07:17;98218.44;;;19.17
15709;BMP180;7954;51.914;8.420;2023-03-31T14:09:51;98222.31;;;19.05
15709;BMP180;7954;51.914;8.420;2023-03-31T14:12:21;98219.94;;;18.73
15709;BMP180;7954;51.914;8.420;2023-03-31T14:14:51;98230.47;;;18.59
15709;BMP180;7954;51.914;8.420;2023-03-31T14:17:26;98212.28;;;18.48
15709;BMP180;7954;51.914;8.420;2023-03-31T14:20:08;98228.03;;;18.44
15709;BMP180;7954;51.914;8.420;2023-03-31T14:23:03;98214.81;;;18.56
15709;BMP180;7954;51.914;8.420;2023-03-31T14:25:39;98224.44;;;18.75
15709;BMP180;7954;51.914;8.420;2023-03-31T14:28:21;98211.94;;;19.04
15709;BMP180;7954;51.914;8.420;2023-03-31T14:31:02;98205.34;;;19.14
15709;BMP180;7954;51.914;8.420;2023-03-31T14:33:43;98199.88;;;19.28
15709;BMP180;7954;51.914;8.420;2023-03-31T14:36:19;98187.53;;;19.41
15709;BMP180;7954;51.914;8.420;2023-03-31T14:38:52;98189.44;;;19.52
15709;BMP180;7954;51.914;8.420;2023-03-31T14:41:23;98188.13;;;19.38
15709;BMP180;7954;51.914;8.420;2023-03-31T14:43:58;98183.97;;;19.22
15709;BMP180;7954;51.914;8.420;2023-03-31T14:46:29;98183.16;;;19.32
15709;BMP180;7954;51.914;8.420;2023-03-31T14:49:05;98184.00;;;19.49
15709;BMP180;7954;51.914;8.420;2023-03-31T14:51:33;98181.56;;;19.59
15709;BMP180;7954;51.914;8.420;2023-03-31T14:54:03;98177.50;;;19.61
15709;BMP180;7954;51.914;8.420;2023-03-31T14:56:33;98187.28;;;19.65
15709;BMP180;7954;51.914;8.420;2023-03-31T14:59:03;98175.69;;;19.60
15709;BMP180;7954;51.914;8.420;2023-03-31T15:01:34;98175.53;;;19.67
15709;BMP180;7954;51.914;8.420;2023-03-31T15:04:06;98172.75;;;19.74
15709;BMP180;7954;51.914;8.420;2023-03-31T15:06:35;98165.63;;;19.97
15709;BMP180;7954;51.914;8.420;2023-03-31T15:09:07;98173.84;;;20.02
15709;BMP180;7954;51.914;8.420;2023-03-31T15:11:38;98159.78;;;20.07